Time;durP1;ratioP1;P1;durP2;ratioP2;P2;SDS_P1;SDS_P2;PMS_P1;PMS_P2;Temp;Humidity;BMP_temperature;BMP_pressure;BME280_temperature;BME280_humidity;BME280_pressure;Samples;Min_cycle;Max_cycle;Signal;HPM_P1;HPM_P2
2022/03/02 00:00:23;;;;;;;;;;;;;;;8.93;42.41;101488.47;4973551;28;7079;-71
2022/03/02 00:02:49;;;;;;;;;;;;;;;8.93;42.63;101485.03;4992794;28;6802;-71
2022/03/02 00:05:16;;;;;;;;;;;;;;;8.89;42.46;101477.16;4994158;28;6784;-71
2022/03/02 00:07:42;;;;;;;;;;;;;;;8.89;42.88;101478.81;4994582;28;6851;-71
2022/03/02 00:10:09;;;;;;;;;;;;;;;8.88;42.74;101471.91;4948633;28;7256;-71
2022/03/02 00:12:35;;;;;;;;;;;;;;;8.85;42.78;101466.59;4979514;28;6900;-71
2022/03/02 00:15:01;;;;;;;;;;;;;;;8.82;42.65;101466.38;4993448;28;6917;-71
2022/03/02 00:17:26;;;;;;;;;;;;;;;8.78;42.64;101466.91;4961427;28;7644;-71
2022/03/02 00:19:52;;;;;;;;;;;;;;;8.73;43.16;101464.94;4983455;28;7108;-71
2022/03/02 00:22:20;;;;;;;;;;;;;;;8.68;43.18;101473.91;4976890;28;10191;-71
2022/03/02 00:24:50;;;;;;;;;;;;;;;8.65;43.53;101476.25;4946762;28;7015;-71
2022/03/02 00:27:19;;;;;;;;;;;;;;;8.60;43.49;101467.38;4975783;28;6815;-71
2022/03/02 00:29:45;;;;;;;;;;;;;;;8.57;43.06;101469.69;4995869;28;6820;-71
2022/03/02 00:32:10;;;;;;;;;;;;;;;8.54;42.81;101469.47;4975037;28;6820;-71
2022/03/02 00:34:36;;;;;;;;;;;;;;;8.51;43.21;101476.94;4980549;28;7172;-71
2022/03/02 00:37:02;;;;;;;;;;;;;;;8.45;43.27;101473.09;4982830;28;6831;-71
2022/03/02 00:39:27;;;;;;;;;;;;;;;8.40;44.18;101474.44;4977441;28;7089;-71
2022/03/02 00:41:53;;;;;;;;;;;;;;;8.36;43.60;101466.44;5000027;28;6792;-71
2022/03/02 00:44:19;;;;;;;;;;;;;;;8.35;42.91;101465.53;5003494;28;7215;-71
2022/03/02 00:46:45;;;;;;;;;;;;;;;8.30;43.20;101465.19;4999459;28;7328;-71
2022/03/02 00:49:11;;;;;;;;;;;;;;;8.26;43.30;101464.84;4978626;28;7349;-71
2022/03/02 00:51:37;;;;;;;;;;;;;;;8.21;43.21;101467.06;4999508;28;6812;-71
2022/03/02 00:54:03;;;;;;;;;;;;;;;8.13;43.77;101466.50;5000361;28;7632;-71
2022/03/02 00:56:29;;;;;;;;;;;;;;;8.07;44.27;101468.56;5002918;28;7870;-71
2022/03/02 00:58:55;;;;;;;;;;;;;;;7.99;44.35;101467.09;4995819;28;6873;-71
2022/03/02 01:01:20;;;;;;;;;;;;;;;7.92;43.30;101466.66;4974652;28;7191;-71
2022/03/02 01:03:46;;;;;;;;;;;;;;;7.86;43.31;101463.63;4981798;28;7294;-71
2022/03/02 01:06:12;;;;;;;;;;;;;;;7.80;43.05;101468.25;4985152;28;7332;-71
2022/03/02 01:08:38;;;;;;;;;;;;;;;7.72;44.28;101454.91;4980536;28;7470;-71
2022/03/02 01:11:04;;;;;;;;;;;;;;;7.67;43.57;101450.22;5000455;28;7291;-71
2022/03/02 01:13:30;;;;;;;;;;;;;;;7.61;43.32;101443.00;4975729;28;6931;-71
2022/03/02 01:15:56;;;;;;;;;;;;;;;7.53;44.38;101438.97;4982365;28;6915;-71
2022/03/02 01:18:21;;;;;;;;;;;;;;;7.47;43.54;101429.19;4982420;28;7633;-71
2022/03/02 01:20:47;;;;;;;;;;;;;;;7.40;44.41;101430.38;4998745;28;7361;-71
2022/03/02 01:23:12;;;;;;;;;;;;;;;7.32;43.66;101429.75;4997651;28;7181;-70
2022/03/02 01:25:38;;;;;;;;;;;;;;;7.28;44.00;101424.31;4989102;28;6784;-71
2022/03/02 01:28:04;;;;;;;;;;;;;;;7.25;43.48;101424.06;4995014;28;6808;-70
2022/03/02 01:30:30;;;;;;;;;;;;;;;7.22;43.52;101419.63;4998327;28;6782;-70
2022/03/02 01:32:56;;;;;;;;;;;;;;;7.19;44.11;101425.34;4968394;28;6800;-70
2022/03/02 01:35:22;;;;;;;;;;;;;;;7.18;43.69;101417.63;4980408;28;7046;-70
2022/03/02 01:37:50;;;;;;;;;;;;;;;7.15;44.02;101413.16;4995969;28;6834;-71
2022/03/02 01:40:16;;;;;;;;;;;;;;;7.13;43.73;101416.34;4997877;28;6823;-71
2022/03/02 01:42:44;;;;;;;;;;;;;;;7.11;43.70;101416.25;4976970;28;7066;-71
2022/03/02 01:45:13;;;;;;;;;;;;;;;7.08;43.64;101427.09;4990465;28;8222;-71
2022/03/02 01:47:39;;;;;;;;;;;;;;;7.03;43.81;101428.38;4995304;28;6879;-71
2022/03/02 01:50:11;;;;;;;;;;;;;;;6.97;44.00;101424.47;4975757;28;6808;-71
2022/03/02 01:52:38;;;;;;;;;;;;;;;6.88;43.78;101414.44;4998061;28;6820;-71
2022/03/02 01:55:07;;;;;;;;;;;;;;;6.79;44.03;101423.13;4967507;28;6784;-71
2022/03/02 01:57:33;;;;;;;;;;;;;;;6.73;44.31;101420.06;4999383;28;7194;-70
2022/03/02 01:59:59;;;;;;;;;;;;;;;6.68;44.23;101416.28;4978549;28;8169;-70
2022/03/02 02:02:24;;;;;;;;;;;;;;;6.63;44.34;101417.56;4994513;28;7543;-70
2022/03/02 02:04:50;;;;;;;;;;;;;;;6.60;44.67;101409.69;4976607;28;6812;-70
2022/03/02 02:07:16;;;;;;;;;;;;;;;6.57;44.77;101411.97;4995003;28;6787;-70
2022/03/02 02:09:42;;;;;;;;;;;;;;;6.56;44.94;101411.09;4978316;28;6823;-70
2022/03/02 02:12:08;;;;;;;;;;;;;;;6.56;44.73;101413.63;4975954;28;6879;-70
2022/03/02 02:14:34;;;;;;;;;;;;;;;6.56;44.81;101402.53;4980409;28;6929;-71
2022/03/02 02:16:59;;;;;;;;;;;;;;;6.60;44.89;101412.22;4951560;28;7733;-71
2022/03/02 02:19:26;;;;;;;;;;;;;;;6.62;44.37;101408.16;4974197;28;6819;-71
2022/03/02 02:21:51;;;;;;;;;;;;;;;6.62;44.47;101409.06;4987200;28;6792;-71
2022/03/02 02:24:18;;;;;;;;;;;;;;;6.62;44.02;101409.06;4999615;28;7274;-71
2022/03/02 02:26:45;;;;;;;;;;;;;;;6.62;44.47;101414.16;4963428;28;6864;-71
2022/03/02 02:29:11;;;;;;;;;;;;;;;6.60;44.71;101410.56;4996798;28;7785;-71
2022/03/02 02:31:37;;;;;;;;;;;;;;;6.57;44.52;101407.78;4972308;28;6999;-70
2022/03/02 02:34:03;;;;;;;;;;;;;;;6.53;44.66;101408.31;4978648;28;6869;-70
2022/03/02 02:36:28;;;;;;;;;;;;;;;6.48;44.80;101410.50;4996603;28;6971;-70
2022/03/02 02:38:54;;;;;;;;;;;;;;;6.46;44.61;101412.00;5001236;28;7978;-70
2022/03/02 02:41:22;;;;;;;;;;;;;;;6.42;44.71;101415.06;4978462;28;6879;-70
2022/03/02 02:43:48;;;;;;;;;;;;;;;6.38;45.24;101403.75;4998943;28;6800;-70
2022/03/02 02:46:13;;;;;;;;;;;;;;;6.38;45.15;101410.50;4977868;28;7255;-71
2022/03/02 02:48:39;;;;;;;;;;;;;;;6.36;45.27;101407.81;4994321;28;6939;-71
2022/03/02 02:51:07;;;;;;;;;;;;;;;6.38;44.98;101407.97;4954932;28;9330;-71
2022/03/02 02:53:34;;;;;;;;;;;;;;;6.37;45.16;101401.97;4986119;28;6889;-71
2022/03/02 02:56:00;;;;;;;;;;;;;;;6.41;45.00;101398.00;4974427;28;7671;-70
2022/03/02 02:58:26;;;;;;;;;;;;;;;6.43;45.25;101388.84;4997958;28;8122;-70
2022/03/02 03:00:52;;;;;;;;;;;;;;;6.45;45.08;101388.97;4970790;28;6931;-70
2022/03/02 03:03:19;;;;;;;;;;;;;;;6.46;45.08;101385.66;4978602;28;7318;-71
2022/03/02 03:05:45;;;;;;;;;;;;;;;6.47;45.00;101377.25;5001223;28;7142;-71
2022/03/02 03:08:12;;;;;;;;;;;;;;;6.47;44.85;101380.69;4999514;28;6796;-71
2022/03/02 03:10:41;;;;;;;;;;;;;;;6.47;44.93;101373.06;4989942;28;6807;-71
2022/03/02 03:13:09;;;;;;;;;;;;;;;6.47;45.20;101373.06;5002239;28;7888;-70
2022/03/02 03:15:35;;;;;;;;;;;;;;;6.47;44.80;101372.16;4981800;28;6812;-70
2022/03/02 03:18:03;;;;;;;;;;;;;;;6.46;45.31;101370.38;4981093;28;7178;-70
2022/03/02 03:20:29;;;;;;;;;;;;;;;6.44;45.34;101370.22;5000376;28;6788;-70
2022/03/02 03:22:57;;;;;;;;;;;;;;;6.42;45.83;101373.41;4983138;28;7535;-70
2022/03/02 03:25:25;;;;;;;;;;;;;;;6.37;45.73;101379.03;4998549;28;6933;-71
2022/03/02 03:27:52;;;;;;;;;;;;;;;6.36;45.64;101369.63;4981471;28;6895;-71
2022/03/02 03:30:21;;;;;;;;;;;;;;;6.35;45.34;101374.59;5000826;28;6887;-71
2022/03/02 03:32:49;;;;;;;;;;;;;;;6.34;45.81;101373.72;4998255;28;7403;-71
2022/03/02 03:35:17;;;;;;;;;;;;;;;6.35;45.98;101366.94;4965903;28;6789;-71
2022/03/02 03:37:44;;;;;;;;;;;;;;;6.35;45.84;101361.84;4978355;28;7109;-71
2022/03/02 03:40:13;;;;;;;;;;;;;;;6.34;46.03;101355.88;4983448;28;7070;-71
2022/03/02 03:42:40;;;;;;;;;;;;;;;6.33;45.76;101359.22;4994453;28;6808;-71
2022/03/02 03:45:07;;;;;;;;;;;;;;;6.34;46.03;101362.63;4973632;28;6880;-71
2022/03/02 03:47:34;;;;;;;;;;;;;;;6.33;45.78;101368.50;4984817;28;7087;-71
2022/03/02 03:50:00;;;;;;;;;;;;;;;6.33;46.01;101358.31;4975423;28;7016;-71
2022/03/02 03:52:25;;;;;;;;;;;;;;;6.34;46.13;101357.53;4975565;28;6946;-71
2022/03/02 03:54:51;;;;;;;;;;;;;;;6.32;45.72;101357.41;4996667;28;6847;-71
2022/03/02 03:57:17;;;;;;;;;;;;;;;6.31;45.77;101353.06;4979687;28;6772;-71
2022/03/02 03:59:42;;;;;;;;;;;;;;;6.30;45.71;101348.75;4977700;28;7331;-71
2022/03/02 04:02:08;;;;;;;;;;;;;;;6.28;45.50;101351.94;4995163;28;6856;-71
2022/03/02 04:04:34;;;;;;;;;;;;;;;6.24;46.04;101349.16;4977587;28;7126;-71
2022/03/02 04:06:59;;;;;;;;;;;;;;;6.21;45.98;101351.47;4975884;28;7277;-70
2022/03/02 04:09:25;;;;;;;;;;;;;;;6.17;45.74;101346.00;5006156;28;6780;-70
2022/03/02 04:11:50;;;;;;;;;;;;;;;6.14;46.04;101351.72;4989733;28;7165;-70
2022/03/02 04:14:17;;;;;;;;;;;;;;;6.09;45.81;101341.16;4984080;28;8398;-70
2022/03/02 04:16:42;;;;;;;;;;;;;;;6.07;45.50;101344.34;4994651;28;7660;-70
2022/03/02 04:19:08;;;;;;;;;;;;;;;6.06;45.58;101337.47;4989565;28;6947;-70
2022/03/02 04:21:34;;;;;;;;;;;;;;;6.05;46.19;101350.97;4999033;28;6808;-71
2022/03/02 04:24:00;;;;;;;;;;;;;;;6.04;45.75;101341.56;4981175;28;6859;-71
2022/03/02 04:26:26;;;;;;;;;;;;;;;6.03;45.78;101340.66;5008049;28;6807;-71
2022/03/02 04:28:52;;;;;;;;;;;;;;;6.03;45.78;101347.41;4993604;28;6800;-71
2022/03/02 04:31:18;;;;;;;;;;;;;;;6.01;45.80;101346.38;4988759;28;6942;-71
2022/03/02 04:33:44;;;;;;;;;;;;;;;6.02;45.79;101350.72;4977120;28;6891;-71
2022/03/02 04:36:10;;;;;;;;;;;;;;;6.01;45.80;101344.69;5003809;28;7241;-71
2022/03/02 04:38:36;;;;;;;;;;;;;;;6.01;45.60;101343.84;4984310;28;6800;-71
2022/03/02 04:41:02;;;;;;;;;;;;;;;5.99;46.03;101341.16;4986417;28;6796;-71
2022/03/02 04:43:28;;;;;;;;;;;;;;;5.98;45.61;101336.84;4987951;28;7234;-71
2022/03/02 04:45:54;;;;;;;;;;;;;;;5.97;46.31;101338.47;4985226;28;6788;-71
2022/03/02 04:48:20;;;;;;;;;;;;;;;5.95;45.91;101328.97;4967200;28;7219;-71
2022/03/02 04:50:45;;;;;;;;;;;;;;;5.94;45.92;101335.69;4987717;28;7107;-71
2022/03/02 04:53:14;;;;;;;;;;;;;;;5.92;46.29;101334.69;4988338;28;7003;-70
2022/03/02 04:55:40;;;;;;;;;;;;;;;5.88;46.07;101334.31;5005471;28;7156;-70
2022/03/02 04:58:06;;;;;;;;;;;;;;;5.83;46.09;101334.78;4986419;28;6820;-70
2022/03/02 05:00:36;;;;;;;;;;;;;;;5.78;46.40;101331.00;5004878;28;6804;-70
2022/03/02 05:03:04;;;;;;;;;;;;;;;5.72;46.87;101335.56;4990122;28;7136;-70
2022/03/02 05:05:34;;;;;;;;;;;;;;;5.66;46.03;101333.41;5001418;28;6896;-70
2022/03/02 05:08:01;;;;;;;;;;;;;;;5.59;47.06;101327.69;4984603;28;6861;-70
2022/03/02 05:10:27;;;;;;;;;;;;;;;5.53;47.02;101333.16;4981264;28;7100;-70
2022/03/02 05:12:54;;;;;;;;;;;;;;;5.46;46.84;101326.69;4992446;28;6784;-70
2022/03/02 05:15:20;;;;;;;;;;;;;;;5.44;47.38;101333.28;4979332;28;6888;-70
2022/03/02 05:17:47;;;;;;;;;;;;;;;5.41;47.20;101328.84;5003740;28;6804;-70
2022/03/02 05:20:16;;;;;;;;;;;;;;;5.41;47.03;101323.75;4984810;28;7298;-70
2022/03/02 05:22:41;;;;;;;;;;;;;;;5.44;46.66;101322.22;4984726;28;7104;-70
2022/03/02 05:25:10;;;;;;;;;;;;;;;5.46;46.29;101320.69;4979655;28;7164;-70
2022/03/02 05:27:36;;;;;;;;;;;;;;;5.48;46.76;101316.63;5000970;28;7389;-70
2022/03/02 05:30:04;;;;;;;;;;;;;;;5.53;46.12;101316.25;4978455;28;6837;-70
2022/03/02 05:32:30;;;;;;;;;;;;;;;5.56;46.42;101313.06;4975618;28;7074;-71
2022/03/02 05:34:55;;;;;;;;;;;;;;;5.58;46.47;101310.66;4977750;28;7125;-70
2022/03/02 05:37:21;;;;;;;;;;;;;;;5.60;46.01;101306.59;4993552;28;7149;-70
2022/03/02 05:39:47;;;;;;;;;;;;;;;5.61;45.89;101316.91;4974740;28;7185;-70
2022/03/02 05:42:13;;;;;;;;;;;;;;;5.62;46.32;101313.59;4960834;28;6768;-70
2022/03/02 05:44:39;;;;;;;;;;;;;;;5.63;45.74;101304.28;4977309;28;7226;-70
2022/03/02 05:47:05;;;;;;;;;;;;;;;5.64;46.19;101312.06;5000557;28;7268;-70
2022/03/02 05:49:31;;;;;;;;;;;;;;;5.67;45.80;101316.50;5000085;28;6811;-70
2022/03/02 05:51:57;;;;;;;;;;;;;;;5.69;45.86;101315.84;4996291;28;6816;-70
2022/03/02 05:54:23;;;;;;;;;;;;;;;5.72;45.84;101317.75;4969338;28;7174;-70
2022/03/02 05:56:48;;;;;;;;;;;;;;;5.75;45.78;101319.69;4974945;28;6803;-70
2022/03/02 05:59:16;;;;;;;;;;;;;;;5.77;45.98;101313.97;4998563;28;7201;-70
2022/03/02 06:01:44;;;;;;;;;;;;;;;5.81;45.59;101317.66;4981167;28;7825;-70
2022/03/02 06:04:12;;;;;;;;;;;;;;;5.83;46.07;101313.56;4979532;28;6857;-70
2022/03/02 06:06:38;;;;;;;;;;;;;;;5.88;45.79;101311.41;4991809;28;7018;-70
2022/03/02 06:09:07;;;;;;;;;;;;;;;5.90;46.05;101314.94;4976310;28;7064;-70
2022/03/02 06:11:37;;;;;;;;;;;;;;;5.90;45.92;101309.88;4985949;28;7176;-70
2022/03/02 06:14:04;;;;;;;;;;;;;;;5.91;45.64;101310.00;4991216;28;7279;-70
2022/03/02 06:16:30;;;;;;;;;;;;;;;5.92;45.63;101314.31;4996039;28;6999;-70
2022/03/02 06:18:56;;;;;;;;;;;;;;;5.92;46.12;101314.31;5001123;28;6888;-70
2022/03/02 06:21:29;;;;;;;;;;;;;;;5.92;45.96;101319.41;4988544;28;6812;-70
2022/03/02 06:23:56;;;;;;;;;;;;;;;5.93;45.61;101316.09;4999963;28;6812;-70
2022/03/02 06:26:24;;;;;;;;;;;;;;;5.93;45.70;101313.56;4973356;28;7367;-70
2022/03/02 06:28:50;;;;;;;;;;;;;;;5.94;45.60;101320.41;4999650;28;6815;-70
2022/03/02 06:31:18;;;;;;;;;;;;;;;5.94;46.02;101312.78;4976976;28;7236;-70
2022/03/02 06:33:47;;;;;;;;;;;;;;;5.95;45.53;101314.56;5000150;28;7027;-70
2022/03/02 06:36:13;;;;;;;;;;;;;;;5.96;45.77;101316.34;4995274;28;7852;-70
2022/03/02 06:38:39;;;;;;;;;;;;;;;5.97;45.54;101320.66;5000863;28;7200;-70
2022/03/02 06:41:36;;;;;;;;;;;;;;;5.99;45.63;101323.34;4978201;28;6804;-71
2022/03/02 06:44:09;;;;;;;;;;;;;;;6.02;45.54;101320.19;5000766;28;6850;-70
2022/03/02 06:47:04;;;;;;;;;;;;;;;6.05;45.38;101321.34;4970880;28;8041;-70
2022/03/02 06:49:53;;;;;;;;;;;;;;;6.09;45.55;101314.84;4980469;28;7499;-70
2022/03/02 06:52:21;;;;;;;;;;;;;;;6.13;45.52;101311.75;4996197;28;7024;-70
2022/03/02 06:54:50;;;;;;;;;;;;;;;6.16;45.54;101314.53;4981115;28;7394;-70
2022/03/02 06:57:19;;;;;;;;;;;;;;;6.21;45.43;101318.38;4995283;28;6908;-70
2022/03/02 06:59:51;;;;;;;;;;;;;;;6.25;45.31;101312.75;4972175;28;6804;-70
2022/03/02 07:02:51;;;;;;;;;;;;;;;6.31;45.20;101314.88;4975980;28;7374;-70
2022/03/02 07:05:19;;;;;;;;;;;;;;;6.38;45.00;101311.19;4991414;28;7019;-70
2022/03/02 07:07:47;;;;;;;;;;;;;;;6.44;45.12;101311.66;4997537;28;7038;-71
2022/03/02 07:10:13;;;;;;;;;;;;;;;6.51;44.79;101311.38;4995506;28;6817;-70
2022/03/02 07:12:40;;;;;;;;;;;;;;;6.57;44.75;101315.16;4975866;28;6804;-70
2022/03/02 07:15:07;;;;;;;;;;;;;;;6.62;44.59;101311.34;4977485;28;6883;-70
2022/03/02 07:17:33;;;;;;;;;;;;;;;6.70;44.89;101312.84;4998833;28;6832;-70
2022/03/02 07:20:02;;;;;;;;;;;;;;;6.76;44.36;101315.88;4998050;28;6796;-70
2022/03/02 07:22:36;;;;;;;;;;;;;;;6.81;44.69;101314.56;4972579;28;7250;-70
2022/03/02 07:25:26;;;;;;;;;;;;;;;6.89;44.65;101317.69;4997922;28;7190;-70
2022/03/02 07:27:59;;;;;;;;;;;;;;;6.93;44.57;101316.28;4981552;28;8273;-70
2022/03/02 07:30:27;;;;;;;;;;;;;;;7.00;44.61;101304.88;4972202;28;7256;-70
2022/03/02 07:33:04;;;;;;;;;;;;;;;7.05;44.62;101314.69;4977796;28;6999;-70
2022/03/02 07:35:34;;;;;;;;;;;;;;;7.11;44.42;101314.28;4996446;28;6796;-70
2022/03/02 07:38:01;;;;;;;;;;;;;;;7.14;44.09;101313.59;4995869;28;7334;-71
2022/03/02 07:40:27;;;;;;;;;;;;;;;7.17;43.74;101313.84;4982725;28;7156;-70
2022/03/02 07:42:53;;;;;;;;;;;;;;;7.19;44.01;101319.94;5000885;28;7224;-70
2022/03/02 07:45:21;;;;;;;;;;;;;;;7.20;43.57;101321.72;4974526;28;7266;-71
2022/03/02 07:47:47;;;;;;;;;;;;;;;7.23;44.01;101327.03;4973646;28;7082;-70
2022/03/02 07:50:14;;;;;;;;;;;;;;;7.25;43.50;101332.28;4988747;28;6908;-70
2022/03/02 07:52:48;;;;;;;;;;;;;;;7.27;44.36;101331.63;4971453;28;6803;-70
2022/03/02 07:55:17;;;;;;;;;;;;;;;7.29;44.36;101324.97;4969076;28;7290;-71
2022/03/02 07:57:44;;;;;;;;;;;;;;;7.33;44.29;101328.66;4975656;28;7263;-71
2022/03/02 08:00:12;;;;;;;;;;;;;;;7.38;44.15;101329.00;4994091;28;9282;-70
2022/03/02 08:02:40;;;;;;;;;;;;;;;7.46;44.42;101326.25;4973941;28;6982;-70
2022/03/02 08:05:07;;;;;;;;;;;;;;;7.53;43.99;101321.63;4960086;28;7278;-70
2022/03/02 08:07:35;;;;;;;;;;;;;;;7.61;43.77;101316.28;4997029;28;6901;-70
2022/03/02 08:10:00;;;;;;;;;;;;;;;7.70;44.18;101317.75;4994392;28;6823;-70
2022/03/02 08:12:27;;;;;;;;;;;;;;;7.78;44.15;101322.69;4990275;28;6910;-70
2022/03/02 08:14:53;;;;;;;;;;;;;;;7.88;43.96;101308.91;4963743;28;7162;-70
2022/03/02 08:17:20;;;;;;;;;;;;;;;7.94;44.04;101302.50;4998203;28;6827;-70
2022/03/02 08:19:46;;;;;;;;;;;;;;;8.01;43.27;101300.50;4990579;28;7252;-71
2022/03/02 08:22:23;;;;;;;;;;;;;;;8.10;43.78;101307.06;4957873;28;6804;-71
2022/03/02 08:25:08;;;;;;;;;;;;;;;8.18;42.46;101304.25;4995893;28;6819;-71
2022/03/02 08:27:34;;;;;;;;;;;;;;;8.25;42.67;101300.47;4977848;28;7344;-70
2022/03/02 08:30:05;;;;;;;;;;;;;;;8.35;43.06;101296.94;4997429;28;7289;-70
2022/03/02 08:32:39;;;;;;;;;;;;;;;8.45;42.72;101293.34;4987652;28;7367;-70
2022/03/02 08:35:06;;;;;;;;;;;;;;;8.54;42.12;101294.03;4976660;28;6949;-70
2022/03/02 08:37:32;;;;;;;;;;;;;;;8.64;42.45;101292.13;4973699;28;7222;-71
2022/03/02 08:39:59;;;;;;;;;;;;;;;8.72;41.77;101302.13;4997104;28;6796;-71
2022/03/02 08:42:25;;;;;;;;;;;;;;;8.81;41.53;101289.06;4998265;28;6891;-71
2022/03/02 08:44:54;;;;;;;;;;;;;;;8.89;41.90;101295.63;4995884;28;6947;-71
2022/03/02 08:47:24;;;;;;;;;;;;;;;8.96;40.58;101294.38;4995572;28;6823;-70
2022/03/02 08:49:51;;;;;;;;;;;;;;;9.05;40.85;101280.44;4998673;28;7149;-70
2022/03/02 08:52:25;;;;;;;;;;;;;;;9.13;40.14;101277.63;4991399;28;6992;-70
2022/03/02 08:54:51;;;;;;;;;;;;;;;9.22;40.60;101279.00;4976863;28;7350;-70
2022/03/02 08:57:18;;;;;;;;;;;;;;;9.27;40.12;101277.66;5005646;28;7165;-70
2022/03/02 08:59:45;;;;;;;;;;;;;;;9.34;40.20;101286.63;5005101;28;7303;-71
2022/03/02 09:02:15;;;;;;;;;;;;;;;9.37;39.14;101286.88;4980090;28;6954;-71
2022/03/02 09:04:43;;;;;;;;;;;;;;;9.41;39.33;101279.47;5001578;28;6891;-71
2022/03/02 09:07:09;;;;;;;;;;;;;;;9.46;40.42;101279.78;4975489;28;6950;-71
2022/03/02 09:09:34;;;;;;;;;;;;;;;9.52;39.43;101287.00;5004770;28;6819;-70
2022/03/02 09:12:00;;;;;;;;;;;;;;;9.55;39.58;101267.59;4982788;28;6869;-71
2022/03/02 09:14:26;;;;;;;;;;;;;;;9.62;39.78;101273.13;5002421;28;6779;-71
2022/03/02 09:16:51;;;;;;;;;;;;;;;9.69;40.11;101270.19;4998381;28;7149;-71
2022/03/02 09:19:17;;;;;;;;;;;;;;;9.75;39.68;101273.13;4978830;28;6950;-72
2022/03/02 09:21:44;;;;;;;;;;;;;;;9.81;39.80;101268.41;4979752;28;7211;-70
2022/03/02 09:24:11;;;;;;;;;;;;;;;9.91;39.55;101266.47;4980724;28;7100;-71
2022/03/02 09:26:39;;;;;;;;;;;;;;;9.99;39.62;101265.28;4967323;28;7321;-71
2022/03/02 09:29:07;;;;;;;;;;;;;;;10.07;39.68;101261.53;4978768;28;6812;-71
2022/03/02 09:31:36;;;;;;;;;;;;;;;10.13;38.82;101261.03;4979285;28;6892;-71
2022/03/02 09:34:10;;;;;;;;;;;;;;;10.19;38.92;101260.53;4975899;28;7312;-71
2022/03/02 09:36:37;;;;;;;;;;;;;;;10.25;38.60;101263.50;4977613;28;7039;-71
2022/03/02 09:39:09;;;;;;;;;;;;;;;10.32;39.35;101257.94;4986617;28;7169;-71
2022/03/02 09:41:35;;;;;;;;;;;;;;;10.40;39.27;101264.44;4973125;28;6808;-71
2022/03/02 09:44:05;;;;;;;;;;;;;;;10.47;38.45;101255.50;4957521;28;7519;-71
2022/03/02 09:46:38;;;;;;;;;;;;;;;10.55;38.34;101261.97;4975556;28;6804;-71
2022/03/02 09:49:11;;;;;;;;;;;;;;;10.63;38.20;101251.31;4973824;28;7356;-71
2022/03/02 09:51:42;;;;;;;;;;;;;;;10.69;38.06;101250.00;4987430;28;6820;-71
2022/03/02 09:54:09;;;;;;;;;;;;;;;10.77;38.25;101245.38;4989647;28;7920;-71
2022/03/02 09:56:36;;;;;;;;;;;;;;;10.84;38.11;101241.50;4990148;28;6835;-71
2022/03/02 09:59:09;;;;;;;;;;;;;;;10.92;38.00;101245.41;4985763;28;7189;-71
2022/03/02 10:01:36;;;;;;;;;;;;;;;10.98;37.46;101238.06;4989432;28;7936;-72
2022/03/02 10:04:21;;;;;;;;;;;;;;;11.07;37.70;101236.84;4959696;28;7258;-72
2022/03/02 10:06:50;;;;;;;;;;;;;;;11.13;37.67;101236.31;4983969;28;8008;-72
2022/03/02 10:09:21;;;;;;;;;;;;;;;11.22;37.59;101239.44;4994054;28;7282;-72
2022/03/02 10:11:49;;;;;;;;;;;;;;;11.29;37.28;101238.09;4970158;28;7889;-71
2022/03/02 10:14:20;;;;;;;;;;;;;;;11.35;36.83;101230.78;4975647;28;6796;-71
2022/03/02 10:16:49;;;;;;;;;;;;;;;11.42;36.98;101232.91;4991062;28;6861;-71
2022/03/02 10:19:23;;;;;;;;;;;;;;;11.49;36.62;101232.47;4968169;28;6832;-71
2022/03/02 10:22:33;;;;;;;;;;;;;;;11.61;36.18;101232.25;4970233;28;6896;-71
2022/03/02 10:25:08;;;;;;;;;;;;;;;11.73;36.02;101226.03;4991626;28;6986;-71
2022/03/02 10:28:06;;;;;;;;;;;;;;;12.00;36.12;101236.09;4975383;28;6839;-71
2022/03/02 10:30:42;;;;;;;;;;;;;;;12.93;35.79;101228.22;4971028;28;7307;-71
2022/03/02 10:33:20;;;;;;;;;;;;;;;14.33;35.48;101226.38;4975730;28;7453;-71
2022/03/02 10:36:10;;;;;;;;;;;;;;;15.79;33.86;101217.06;4992968;28;6820;-71
2022/03/02 10:38:57;;;;;;;;;;;;;;;17.20;32.13;101206.72;4996056;28;7180;-71
2022/03/02 10:41:24;;;;;;;;;;;;;;;18.28;31.44;101205.75;4997205;28;7015;-71
2022/03/02 10:44:03;;;;;;;;;;;;;;;19.17;30.74;101202.06;4995331;28;7288;-71
2022/03/02 10:46:29;;;;;;;;;;;;;;;19.89;29.79;101199.44;4974386;28;6920;-71
2022/03/02 10:49:20;;;;;;;;;;;;;;;20.40;28.98;101198.84;4962261;28;6824;-71
2022/03/02 10:51:47;;;;;;;;;;;;;;;20.95;28.25;101202.47;4996435;28;6860;-71
2022/03/02 10:54:21;;;;;;;;;;;;;;;21.42;27.52;101198.91;4978720;28;6796;-71
2022/03/02 10:56:54;;;;;;;;;;;;;;;21.76;27.05;101198.56;4977139;28;6832;-71
2022/03/02 10:59:25;;;;;;;;;;;;;;;22.13;26.32;101187.78;4971442;28;7241;-71
2022/03/02 11:01:53;;;;;;;;;;;;;;;22.30;25.34;101191.44;4981896;28;6812;-71
2022/03/02 11:04:22;;;;;;;;;;;;;;;22.51;25.07;101195.22;4995672;28;6884;-71
2022/03/02 11:06:48;;;;;;;;;;;;;;;22.63;24.60;101188.38;4995153;28;6811;-71
2022/03/02 11:09:17;;;;;;;;;;;;;;;22.70;24.30;101190.19;4977201;28;6981;-71
2022/03/02 11:11:43;;;;;;;;;;;;;;;22.81;23.56;101187.66;4979096;28;7214;-71
2022/03/02 11:14:10;;;;;;;;;;;;;;;22.83;23.31;101184.22;4980893;28;7370;-71
2022/03/02 11:16:36;;;;;;;;;;;;;;;22.93;22.91;101176.47;4977936;28;6811;-71
2022/03/02 11:19:15;;;;;;;;;;;;;;;23.07;22.66;101168.75;4999463;28;7072;-71
2022/03/02 11:21:44;;;;;;;;;;;;;;;23.14;22.64;101176.66;4994312;28;7448;-71
2022/03/02 11:24:17;;;;;;;;;;;;;;;23.23;22.90;101173.25;4998369;28;7977;-71
2022/03/02 11:26:46;;;;;;;;;;;;;;;23.38;22.50;101175.13;4980633;28;7193;-71
2022/03/02 11:29:16;;;;;;;;;;;;;;;23.36;22.41;101174.22;4970367;28;6990;-71
2022/03/02 11:31:56;;;;;;;;;;;;;;;23.27;22.81;101161.94;4976333;28;6815;-71
2022/03/02 11:34:29;;;;;;;;;;;;;;;23.04;22.44;101166.97;4995751;28;6808;-70
2022/03/02 11:37:05;;;;;;;;;;;;;;;23.07;22.64;101167.00;4962560;28;7671;-71
2022/03/02 11:39:41;;;;;;;;;;;;;;;23.30;22.47;101161.97;4993019;28;6812;-71
2022/03/02 11:42:06;;;;;;;;;;;;;;;23.48;21.96;101159.50;4971896;28;7154;-71
2022/03/02 11:44:42;;;;;;;;;;;;;;;23.58;22.14;101161.31;4972977;28;7152;-71
2022/03/02 11:47:14;;;;;;;;;;;;;;;23.57;21.69;101152.56;4969264;28;7046;-71
2022/03/02 11:49:52;;;;;;;;;;;;;;;23.64;21.90;101150.84;4984733;28;6948;-71
2022/03/02 11:52:30;;;;;;;;;;;;;;;23.66;21.62;101151.75;4988647;28;6820;-71
2022/03/02 11:55:05;;;;;;;;;;;;;;;23.75;22.01;101142.19;4991354;28;6816;-71
2022/03/02 11:57:41;;;;;;;;;;;;;;;23.77;21.07;101141.34;4953649;28;7178;-71
2022/03/02 12:00:19;;;;;;;;;;;;;;;23.74;21.52;101143.94;4974264;28;6910;-71
2022/03/02 12:02:54;;;;;;;;;;;;;;;23.66;21.11;101137.78;4957157;28;7646;-71
2022/03/02 12:05:32;;;;;;;;;;;;;;;23.64;21.34;101140.38;4986883;28;7332;-71
2022/03/02 12:08:10;;;;;;;;;;;;;;;23.58;20.95;101140.38;4972482;28;7988;-71
2022/03/02 12:10:41;;;;;;;;;;;;;;;23.46;20.52;101135.06;4965356;28;7545;-71
2022/03/02 12:13:07;;;;;;;;;;;;;;;23.40;21.03;101134.16;4991784;28;6816;-71
2022/03/02 12:15:47;;;;;;;;;;;;;;;23.44;21.03;101133.31;4964647;28;7150;-71
2022/03/02 12:18:16;;;;;;;;;;;;;;;23.40;21.01;101126.31;4962296;28;6891;-71
2022/03/02 12:20:47;;;;;;;;;;;;;;;23.26;20.92;101127.91;4977273;28;7304;-71
2022/03/02 12:23:20;;;;;;;;;;;;;;;23.05;20.52;101119.06;4973702;28;6794;-71
2022/03/02 12:25:47;;;;;;;;;;;;;;;22.86;20.77;101113.69;4981660;28;7116;-71
2022/03/02 12:28:16;;;;;;;;;;;;;;;22.72;20.72;101104.88;4960806;28;7067;-71
2022/03/02 12:30:42;;;;;;;;;;;;;;;;;;4994277;28;6879;-71
2022/03/02 12:33:08;;;;;;;;;;;;;;;22.10;20.75;101098.97;4995585;28;7157;-71
2022/03/02 12:35:35;;;;;;;;;;;;;;;21.42;21.12;101101.56;5001947;28;6827;-71
2022/03/02 12:38:09;;;;;;;;;;;;;;;20.51;21.60;101101.84;4983953;28;6953;-71
2022/03/02 12:40:42;;;;;;;;;;;;;;;19.60;22.42;101109.53;4980834;28;6861;-71
2022/03/02 12:43:17;;;;;;;;;;;;;;;18.79;22.63;101098.94;4996808;28;7081;-71
2022/03/02 12:45:49;;;;;;;;;;;;;;;18.13;23.51;101094.63;4974392;28;6995;-71
2022/03/02 12:48:22;;;;;;;;;;;;;;;17.55;24.06;101096.38;4999411;28;6816;-71
2022/03/02 12:50:49;;;;;;;;;;;;;;;17.14;24.48;101089.97;4998506;28;7337;-71
2022/03/02 12:53:16;;;;;;;;;;;;;;;16.84;24.69;101094.97;4979469;28;6824;-70
2022/03/02 12:55:42;;;;;;;;;;;;;;;16.58;24.79;101087.22;4997818;28;7128;-70
2022/03/02 12:58:10;;;;;;;;;;;;;;;16.35;25.03;101077.81;4976277;28;7280;-70
2022/03/02 13:00:35;;;;;;;;;;;;;;;16.21;25.49;101086.81;4991487;28;6804;-70
2022/03/02 13:03:06;;;;;;;;;;;;;;;16.10;25.47;101087.31;4977688;28;6812;-70